createdAt,value
2023-01-21T00:03:08.829Z,-0.60
2023-01-21T00:08:10.666Z,-0.60
2023-01-21T00:13:12.860Z,-0.60
2023-01-21T00:18:14.587Z,-0.50
2023-01-21T00:23:16.270Z,-0.50
2023-01-21T00:28:18.889Z,-0.50
2023-01-21T00:33:20.661Z,-0.40
2023-01-21T00:38:22.356Z,-0.30
2023-01-21T00:43:24.049Z,-0.40
2023-01-21T00:48:28.272Z,-0.30
2023-01-21T00:53:32.977Z,-0.30
2023-01-21T00:58:35.195Z,-0.40
2023-01-21T01:03:38.649Z,-0.40
2023-01-21T01:08:40.883Z,-0.50
2023-01-21T01:13:43.300Z,-0.50
2023-01-21T01:18:45.865Z,-0.50
2023-01-21T01:23:48.260Z,-0.60
2023-01-21T01:28:50.074Z,-0.70
2023-01-21T01:33:51.801Z,-0.60
2023-01-21T01:38:54.077Z,-0.70
2023-01-21T01:44:01.395Z,-0.80
2023-01-21T01:49:16.938Z,-0.70
2023-01-21T01:54:23.452Z,-0.80
2023-01-21T01:59:25.555Z,-0.90
2023-01-21T02:04:31.306Z,-1.10
2023-01-21T02:09:33.131Z,-1.20
2023-01-21T02:14:42.646Z,-1.30
2023-01-21T02:19:57.632Z,-1.20
2023-01-21T02:25:26.609Z,-1.30
2023-01-21T02:30:56.902Z,-1.40
2023-01-21T02:36:14.955Z,-1.40
2023-01-21T02:41:48.908Z,-1.50
2023-01-21T02:46:56.471Z,-1.50
2023-01-21T02:51:58.239Z,-1.60
2023-01-21T02:56:59.954Z,-1.60
2023-01-21T03:02:07.446Z,-1.50
2023-01-21T03:07:36.633Z,-1.30
2023-01-21T03:12:49.890Z,-1.20
2023-01-21T03:18:03.650Z,-1.10
2023-01-21T03:23:20.761Z,-1.20
2023-01-21T03:28:26.376Z,-1.20
2023-01-21T03:33:30.641Z,-1.30
2023-01-21T03:38:41.466Z,-1.30
2023-01-21T03:43:43.232Z,-1.30
2023-01-21T03:49:12.699Z,-1.50
2023-01-21T03:54:14.949Z,-1.60
2023-01-21T03:59:16.672Z,-1.70
2023-01-21T04:04:18.344Z,-1.80
2023-01-21T04:09:20.315Z,-1.90
2023-01-21T04:14:22.037Z,-1.90
2023-01-21T04:19:23.784Z,-2.00
2023-01-21T04:24:25.775Z,-2.10
2023-01-21T04:29:27.766Z,-2.10
2023-01-21T04:34:29.589Z,-2.10
2023-01-21T04:39:31.451Z,-2.20
2023-01-21T04:44:33.119Z,-2.20
2023-01-21T04:49:34.792Z,-2.20
2023-01-21T04:54:36.467Z,-2.10
2023-01-21T04:59:38.170Z,-2.20
2023-01-21T05:04:39.877Z,-2.20
2023-01-21T05:09:41.791Z,-2.30
2023-01-21T05:14:43.474Z,-2.30
2023-01-21T05:19:45.184Z,-2.40
2023-01-21T05:24:46.912Z,-2.50
2023-01-21T05:29:48.708Z,-2.50
2023-01-21T05:34:50.379Z,-2.40
2023-01-21T05:39:52.122Z,-2.50
2023-01-21T05:44:53.821Z,-2.60
2023-01-21T05:49:55.515Z,-2.50
2023-01-21T05:55:02.231Z,-2.60
2023-01-21T06:00:05.075Z,-2.50
2023-01-21T06:05:07.296Z,-2.60
2023-01-21T06:10:09.524Z,-2.60
2023-01-21T06:15:11.805Z,-2.50
2023-01-21T06:20:13.603Z,-2.50
2023-01-21T06:25:15.316Z,-2.30
2023-01-21T06:30:17.428Z,-2.30
2023-01-21T06:35:19.687Z,-2.30
2023-01-21T06:40:21.632Z,-2.40
2023-01-21T06:45:23.383Z,-2.50
2023-01-21T06:50:25.286Z,-2.60
2023-01-21T06:55:27.003Z,-2.50
2023-01-21T07:00:28.711Z,-2.60
2023-01-21T07:05:30.576Z,-2.50
2023-01-21T07:10:32.875Z,-2.50
2023-01-21T07:15:34.828Z,-2.50
2023-01-21T07:20:40.780Z,-2.50
2023-01-21T07:25:42.960Z,-2.50
2023-01-21T07:30:45.194Z,-2.40
2023-01-21T07:35:47.164Z,-2.30
2023-01-21T07:40:49.871Z,-2.60
2023-01-21T07:45:51.848Z,-2.60
2023-01-21T07:50:57.093Z,-2.40
2023-01-21T07:56:02.784Z,-2.50
2023-01-21T08:01:07.889Z,-2.30
2023-01-21T08:06:09.713Z,-2.10
2023-01-21T08:11:11.411Z,-2.10
2023-01-21T08:16:13.697Z,-2.00
2023-01-21T08:21:15.525Z,-1.80
2023-01-21T08:26:17.242Z,-1.50
2023-01-21T08:31:19.068Z,-1.20
2023-01-21T08:36:20.898Z,-0.90
2023-01-21T08:41:22.656Z,-0.90
2023-01-21T08:46:26.641Z,-0.80
2023-01-21T08:51:28.399Z,-0.50
2023-01-21T08:56:30.091Z,-0.20
2023-01-21T09:01:32.029Z,0.00
2023-01-21T09:06:33.891Z,0.20
2023-01-21T09:11:35.653Z,0.60
2023-01-21T09:16:37.642Z,0.80
2023-01-21T09:21:39.389Z,1.00
2023-01-21T09:26:44.555Z,0.90
2023-01-21T09:31:46.388Z,0.70
2023-01-21T09:36:48.180Z,0.60
2023-01-21T09:41:51.626Z,0.60
2023-01-21T09:47:23.593Z,0.70
2023-01-21T09:52:40.032Z,0.70
2023-01-21T09:58:00.157Z,0.70
2023-01-21T10:03:13.065Z,0.70
2023-01-21T10:08:25.484Z,0.70
2023-01-21T10:13:49.455Z,0.70
2023-01-21T10:18:53.376Z,0.80
2023-01-21T10:24:01.300Z,0.80
2023-01-21T10:29:03.718Z,0.80
2023-01-21T10:34:14.832Z,0.80
2023-01-21T10:39:24.830Z,0.90
2023-01-21T10:44:35.454Z,0.90
2023-01-21T10:49:49.654Z,1.00
2023-01-21T10:55:30.332Z,1.00
2023-01-21T11:00:36.226Z,1.10
2023-01-21T11:05:38.556Z,1.10
2023-01-21T11:10:40.569Z,1.10
2023-01-21T11:15:49.872Z,1.20
2023-01-21T11:20:53.431Z,1.30
2023-01-21T11:26:21.153Z,1.40
2023-01-21T11:31:26.961Z,1.80
2023-01-21T11:36:28.916Z,2.00
2023-01-21T11:41:31.358Z,1.90
2023-01-21T11:46:38.906Z,1.80
2023-01-21T11:51:42.263Z,1.80
2023-01-21T11:57:04.309Z,1.80
2023-01-21T12:02:14.717Z,1.80
2023-01-21T12:07:29.563Z,2.00
2023-01-21T12:12:47.210Z,1.80
2023-01-21T12:18:28.107Z,2.00
2023-01-21T12:23:46.682Z,2.00
2023-01-21T12:28:57.494Z,1.90
2023-01-21T12:34:31.202Z,2.10
2023-01-21T12:39:40.147Z,1.70
2023-01-21T12:45:04.749Z,1.70
2023-01-21T12:50:30.295Z,1.60
2023-01-21T12:56:17.586Z,1.60
2023-01-21T13:01:39.701Z,1.70
2023-01-21T13:06:54.084Z,1.60
2023-01-21T13:12:01.457Z,1.70
2023-01-21T13:17:16.990Z,1.60
2023-01-21T13:22:30.781Z,1.70
2023-01-21T13:27:51.127Z,2.00
2023-01-21T13:33:01.679Z,1.80
2023-01-21T13:38:23.572Z,1.60
2023-01-21T13:43:55.727Z,1.80
2023-01-21T13:49:21.762Z,1.80
2023-01-21T13:54:54.667Z,1.70
2023-01-21T14:00:20.506Z,1.70
2023-01-21T14:05:32.589Z,1.70
2023-01-21T14:10:46.959Z,1.70
2023-01-21T14:15:56.691Z,1.80
2023-01-21T14:21:18.241Z,1.70
2023-01-21T14:26:53.789Z,1.70
2023-01-21T14:32:21.725Z,1.70
2023-01-21T14:37:47.120Z,1.70
2023-01-21T14:42:51.074Z,1.70
2023-01-21T14:47:57.803Z,1.70
2023-01-21T14:52:59.673Z,1.70
2023-01-21T14:58:01.706Z,1.50
2023-01-21T15:03:09.388Z,1.50
2023-01-21T15:08:24.533Z,1.40
2023-01-21T15:13:37.176Z,1.40
2023-01-21T15:18:45.307Z,1.40
2023-01-21T15:23:50.016Z,1.40
2023-01-21T15:28:56.174Z,1.40
2023-01-21T15:34:01.948Z,1.40
2023-01-21T15:39:31.772Z,1.30
2023-01-21T15:44:44.103Z,1.20
2023-01-21T15:49:54.707Z,1.30
2023-01-21T15:55:25.828Z,1.20
2023-01-21T16:00:42.919Z,1.20
2023-01-21T16:06:19.689Z,1.20
2023-01-21T16:11:30.640Z,1.20
2023-01-21T16:16:57.156Z,1.20
2023-01-21T16:22:04.917Z,1.10
2023-01-21T16:27:27.259Z,1.10
2023-01-21T16:32:32.223Z,1.20
2023-01-21T16:37:35.133Z,1.20
2023-01-21T16:42:44.123Z,1.20
2023-01-21T16:47:52.738Z,1.10
2023-01-21T16:52:56.352Z,1.20
2023-01-21T16:57:59.699Z,1.20
2023-01-21T17:03:03.572Z,1.20
2023-01-21T17:08:11.296Z,1.20
2023-01-21T17:13:16.221Z,1.20
2023-01-21T17:18:22.501Z,1.20
2023-01-21T17:23:37.823Z,1.20
2023-01-21T17:28:57.454Z,1.10
2023-01-21T17:34:06.293Z,1.20
2023-01-21T17:39:08.923Z,1.10
2023-01-21T17:44:23.990Z,1.30
2023-01-21T17:49:26.296Z,1.20
2023-01-21T17:54:29.735Z,1.10
2023-01-21T17:59:34.172Z,1.10
2023-01-21T18:04:35.925Z,1.10
2023-01-21T18:09:37.627Z,1.10
2023-01-21T18:14:39.332Z,1.10
2023-01-21T18:19:41.101Z,1.10
2023-01-21T18:24:45.752Z,1.10
2023-01-21T18:29:53.851Z,1.20
2023-01-21T18:34:55.917Z,1.20
2023-01-21T18:39:57.835Z,1.00
2023-01-21T18:44:59.674Z,1.00
2023-01-21T18:50:03.646Z,1.10
2023-01-21T18:55:07.148Z,1.10
2023-01-21T19:00:26.979Z,1.20
2023-01-21T19:05:36.184Z,1.20
2023-01-21T19:10:37.879Z,1.20
2023-01-21T19:15:39.803Z,1.20
2023-01-21T19:20:42.332Z,1.30
2023-01-21T19:25:51.480Z,1.30
2023-01-21T19:30:58.205Z,1.40
2023-01-21T19:36:04.446Z,1.30
2023-01-21T19:41:06.196Z,1.20
2023-01-21T19:46:11.655Z,1.30
2023-01-21T19:51:13.384Z,1.30
2023-01-21T19:56:20.506Z,1.20
2023-01-21T20:01:22.250Z,1.30
2023-01-21T20:06:24.722Z,1.30
2023-01-21T20:11:26.436Z,1.30
2023-01-21T20:16:28.319Z,1.20
2023-01-21T20:21:30.076Z,1.30
2023-01-21T20:26:31.835Z,1.10
2023-01-21T20:31:33.888Z,1.10
2023-01-21T20:36:37.139Z,1.10
2023-01-21T20:41:40.789Z,1.10
2023-01-21T20:46:43.941Z,1.10
2023-01-21T20:51:45.837Z,1.10
2023-01-21T20:56:48.184Z,1.00
2023-01-21T21:01:51.453Z,1.00
2023-01-21T21:06:53.243Z,0.90
2023-01-21T21:11:54.948Z,0.90
2023-01-21T21:16:58.015Z,1.00
2023-01-21T21:21:59.700Z,1.10
2023-01-21T21:27:02.936Z,1.10
2023-01-21T21:32:06.829Z,1.10
2023-01-21T21:37:13.383Z,1.10
2023-01-21T21:42:35.361Z,1.10
2023-01-21T21:47:55.643Z,1.20
2023-01-21T21:52:57.315Z,1.20
2023-01-21T21:57:59.057Z,1.20
2023-01-21T22:03:02.088Z,1.20
2023-01-21T22:08:03.820Z,1.10
2023-01-21T22:13:05.622Z,1.20
2023-01-21T22:18:07.295Z,1.20
2023-01-21T22:23:08.991Z,1.20
2023-01-21T22:28:10.726Z,1.30
2023-01-21T22:33:12.453Z,1.30
2023-01-21T22:38:14.226Z,1.30
2023-01-21T22:43:19.242Z,1.40
2023-01-21T22:48:21.202Z,1.40
2023-01-21T22:53:24.374Z,1.40
2023-01-21T22:58:27.934Z,1.30
2023-01-21T23:03:30.060Z,1.30
2023-01-21T23:08:31.949Z,1.30
2023-01-21T23:13:36.286Z,1.40
2023-01-21T23:18:40.324Z,1.30
2023-01-21T23:23:42.051Z,1.30
2023-01-21T23:28:43.781Z,1.40
2023-01-21T23:33:50.010Z,1.40
2023-01-21T23:38:51.689Z,1.50
2023-01-21T23:43:53.468Z,1.40
2023-01-21T23:48:55.508Z,1.30
2023-01-21T23:53:57.355Z,1.40
2023-01-21T23:58:59.412Z,1.40
